sensor_id;sensor_type;location;lat;lon;timestamp;P1;durP1;ratioP1;P2;durP2;ratioP2
50815;SDS011;39717;47.324;8.788;2023-04-12T00:01:17;1.83;;;1.40;;
50815;SDS011;39717;47.324;8.788;2023-04-12T00:03:43;3.10;;;1.70;;
50815;SDS011;39717;47.324;8.788;2023-04-12T00:06:14;3.13;;;1.80;;
50815;SDS011;39717;47.324;8.788;2023-04-12T00:08:41;2.17;;;1.70;;
50815;SDS011;39717;47.324;8.788;2023-04-12T00:11:11;2.37;;;1.70;;
50815;SDS011;39717;47.324;8.788;2023-04-12T00:13:37;2.27;;;1.73;;
50815;SDS011;39717;47.324;8.788;2023-04-12T00:16:02;2.00;;;1.80;;
50815;SDS011;39717;47.324;8.788;2023-04-12T00:18:28;1.77;;;1.50;;
50815;SDS011;39717;47.324;8.788;2023-04-12T00:20:54;1.57;;;1.47;;
50815;SDS011;39717;47.324;8.788;2023-04-12T00:23:20;2.57;;;1.60;;
50815;SDS011;39717;47.324;8.788;2023-04-12T00:25:46;2.43;;;1.70;;
50815;SDS011;39717;47.324;8.788;2023-04-12T00:28:12;1.60;;;1.50;;
50815;SDS011;39717;47.324;8.788;2023-04-12T00:30:38;2.13;;;1.80;;
50815;SDS011;39717;47.324;8.788;2023-04-12T00:33:05;1.30;;;1.13;;
50815;SDS011;39717;47.324;8.788;2023-04-12T00:35:31;1.20;;;1.10;;
50815;SDS011;39717;47.324;8.788;2023-04-12T00:37:57;1.73;;;1.13;;
50815;SDS011;39717;47.324;8.788;2023-04-12T00:40:23;2.03;;;1.30;;
50815;SDS011;39717;47.324;8.788;2023-04-12T00:42:48;1.67;;;1.30;;
50815;SDS011;39717;47.324;8.788;2023-04-12T00:45:14;1.83;;;1.13;;
50815;SDS011;39717;47.324;8.788;2023-04-12T00:47:40;1.13;;;1.00;;
50815;SDS011;39717;47.324;8.788;2023-04-12T00:50:09;0.90;;;0.87;;
50815;SDS011;39717;47.324;8.788;2023-04-12T00:52:36;2.17;;;1.30;;
50815;SDS011;39717;47.324;8.788;2023-04-12T00:55:03;0.80;;;0.80;;
50815;SDS011;39717;47.324;8.788;2023-04-12T00:57:34;0.87;;;0.87;;
50815;SDS011;39717;47.324;8.788;2023-04-12T01:00:05;0.50;;;0.50;;
50815;SDS011;39717;47.324;8.788;2023-04-12T01:02:35;1.57;;;0.80;;
50815;SDS011;39717;47.324;8.788;2023-04-12T01:05:03;1.10;;;0.83;;
50815;SDS011;39717;47.324;8.788;2023-04-12T01:12:50;1.30;;;1.13;;
50815;SDS011;39717;47.324;8.788;2023-04-12T01:15:27;1.00;;;0.90;;
50815;SDS011;39717;47.324;8.788;2023-04-12T01:17:58;3.47;;;1.20;;
50815;SDS011;39717;47.324;8.788;2023-04-12T01:20:50;1.23;;;1.17;;
50815;SDS011;39717;47.324;8.788;2023-04-12T01:26:35;1.77;;;1.30;;
50815;SDS011;39717;47.324;8.788;2023-04-12T01:29:15;2.77;;;1.03;;
50815;SDS011;39717;47.324;8.788;2023-04-12T01:31:50;1.73;;;1.10;;
50815;SDS011;39717;47.324;8.788;2023-04-12T01:34:19;1.33;;;1.23;;
50815;SDS011;39717;47.324;8.788;2023-04-12T01:36:47;1.43;;;1.10;;
50815;SDS011;39717;47.324;8.788;2023-04-12T01:39:14;1.30;;;1.20;;
50815;SDS011;39717;47.324;8.788;2023-04-12T01:41:40;1.60;;;1.30;;
50815;SDS011;39717;47.324;8.788;2023-04-12T01:44:13;1.23;;;1.13;;
50815;SDS011;39717;47.324;8.788;2023-04-12T01:46:39;0.90;;;0.90;;
50815;SDS011;39717;47.324;8.788;2023-04-12T01:49:08;1.23;;;1.13;;
50815;SDS011;39717;47.324;8.788;2023-04-12T01:51:51;1.47;;;1.30;;
50815;SDS011;39717;47.324;8.788;2023-04-12T01:54:29;1.40;;;1.30;;
50815;SDS011;39717;47.324;8.788;2023-04-12T01:57:01;1.27;;;1.17;;
50815;SDS011;39717;47.324;8.788;2023-04-12T01:59:34;1.60;;;1.13;;
50815;SDS011;39717;47.324;8.788;2023-04-12T02:02:05;1.47;;;1.20;;
50815;SDS011;39717;47.324;8.788;2023-04-12T02:04:32;1.50;;;1.40;;
50815;SDS011;39717;47.324;8.788;2023-04-12T02:07:00;2.30;;;1.40;;
50815;SDS011;39717;47.324;8.788;2023-04-12T02:09:26;1.80;;;1.53;;
50815;SDS011;39717;47.324;8.788;2023-04-12T02:11:52;1.47;;;1.30;;
50815;SDS011;39717;47.324;8.788;2023-04-12T02:14:18;2.90;;;1.50;;
50815;SDS011;39717;47.324;8.788;2023-04-12T02:16:44;3.13;;;1.63;;
50815;SDS011;39717;47.324;8.788;2023-04-12T02:19:13;2.00;;;1.50;;
50815;SDS011;39717;47.324;8.788;2023-04-12T02:21:39;2.83;;;1.80;;
50815;SDS011;39717;47.324;8.788;2023-04-12T02:24:07;2.00;;;1.60;;
50815;SDS011;39717;47.324;8.788;2023-04-12T02:26:33;1.87;;;1.70;;
50815;SDS011;39717;47.324;8.788;2023-04-12T02:29:01;2.40;;;1.73;;
50815;SDS011;39717;47.324;8.788;2023-04-12T02:31:28;3.93;;;2.00;;
50815;SDS011;39717;47.324;8.788;2023-04-12T02:33:57;2.13;;;1.90;;
50815;SDS011;39717;47.324;8.788;2023-04-12T02:36:22;3.53;;;1.50;;
50815;SDS011;39717;47.324;8.788;2023-04-12T02:38:48;2.50;;;1.97;;
50815;SDS011;39717;47.324;8.788;2023-04-12T02:41:18;2.23;;;1.90;;
50815;SDS011;39717;47.324;8.788;2023-04-12T02:43:45;2.10;;;1.63;;
50815;SDS011;39717;47.324;8.788;2023-04-12T02:46:15;3.37;;;1.80;;
50815;SDS011;39717;47.324;8.788;2023-04-12T02:48:44;2.67;;;1.93;;
50815;SDS011;39717;47.324;8.788;2023-04-12T02:51:10;4.07;;;1.93;;
50815;SDS011;39717;47.324;8.788;2023-04-12T02:53:36;2.67;;;2.10;;
50815;SDS011;39717;47.324;8.788;2023-04-12T02:56:05;1.83;;;1.70;;
50815;SDS011;39717;47.324;8.788;2023-04-12T02:58:32;2.40;;;2.20;;
50815;SDS011;39717;47.324;8.788;2023-04-12T03:01:01;2.30;;;1.93;;
50815;SDS011;39717;47.324;8.788;2023-04-12T03:03:31;1.87;;;1.67;;
50815;SDS011;39717;47.324;8.788;2023-04-12T03:05:58;3.73;;;2.10;;
50815;SDS011;39717;47.324;8.788;2023-04-12T03:08:24;3.10;;;1.93;;
50815;SDS011;39717;47.324;8.788;2023-04-12T03:10:50;2.33;;;2.00;;
50815;SDS011;39717;47.324;8.788;2023-04-12T03:13:16;2.87;;;2.40;;
50815;SDS011;39717;47.324;8.788;2023-04-12T03:15:41;3.30;;;2.20;;
50815;SDS011;39717;47.324;8.788;2023-04-12T03:18:10;3.00;;;2.17;;
50815;SDS011;39717;47.324;8.788;2023-04-12T03:20:36;2.40;;;1.90;;
50815;SDS011;39717;47.324;8.788;2023-04-12T03:23:07;2.93;;;1.83;;
50815;SDS011;39717;47.324;8.788;2023-04-12T03:25:34;2.43;;;2.23;;
50815;SDS011;39717;47.324;8.788;2023-04-12T03:28:01;2.50;;;2.30;;
50815;SDS011;39717;47.324;8.788;2023-04-12T03:30:27;2.30;;;2.10;;
50815;SDS011;39717;47.324;8.788;2023-04-12T03:32:52;3.03;;;2.20;;
50815;SDS011;39717;47.324;8.788;2023-04-12T03:35:18;3.33;;;2.53;;
50815;SDS011;39717;47.324;8.788;2023-04-12T03:37:44;7.77;;;2.77;;
50815;SDS011;39717;47.324;8.788;2023-04-12T03:40:10;2.50;;;2.30;;
50815;SDS011;39717;47.324;8.788;2023-04-12T03:42:36;3.47;;;2.40;;
50815;SDS011;39717;47.324;8.788;2023-04-12T03:45:02;2.97;;;2.50;;
50815;SDS011;39717;47.324;8.788;2023-04-12T03:47:28;2.90;;;2.30;;
50815;SDS011;39717;47.324;8.788;2023-04-12T03:49:54;3.67;;;2.30;;
50815;SDS011;39717;47.324;8.788;2023-04-12T03:52:20;2.40;;;2.07;;
50815;SDS011;39717;47.324;8.788;2023-04-12T03:54:46;2.57;;;2.33;;
50815;SDS011;39717;47.324;8.788;2023-04-12T03:57:12;2.77;;;2.20;;
50815;SDS011;39717;47.324;8.788;2023-04-12T03:59:38;4.73;;;2.10;;
50815;SDS011;39717;47.324;8.788;2023-04-12T04:02:03;3.03;;;2.27;;
50815;SDS011;39717;47.324;8.788;2023-04-12T04:04:29;3.30;;;2.20;;
50815;SDS011;39717;47.324;8.788;2023-04-12T04:06:55;5.13;;;2.70;;
50815;SDS011;39717;47.324;8.788;2023-04-12T04:09:21;3.80;;;2.83;;
50815;SDS011;39717;47.324;8.788;2023-04-12T04:11:46;4.63;;;2.43;;
50815;SDS011;39717;47.324;8.788;2023-04-12T04:14:14;2.30;;;2.10;;
50815;SDS011;39717;47.324;8.788;2023-04-12T04:16:40;4.03;;;2.00;;
50815;SDS011;39717;47.324;8.788;2023-04-12T04:19:05;2.33;;;1.77;;
50815;SDS011;39717;47.324;8.788;2023-04-12T04:21:31;2.00;;;1.80;;
50815;SDS011;39717;47.324;8.788;2023-04-12T04:23:58;2.40;;;1.73;;
50815;SDS011;39717;47.324;8.788;2023-04-12T04:26:25;1.50;;;1.40;;
50815;SDS011;39717;47.324;8.788;2023-04-12T04:28:57;3.63;;;1.57;;
50815;SDS011;39717;47.324;8.788;2023-04-12T04:31:27;1.97;;;1.40;;
50815;SDS011;39717;47.324;8.788;2023-04-12T04:34:01;1.57;;;1.23;;
50815;SDS011;39717;47.324;8.788;2023-04-12T04:36:31;1.80;;;1.33;;
50815;SDS011;39717;47.324;8.788;2023-04-12T04:38:58;1.50;;;1.40;;
50815;SDS011;39717;47.324;8.788;2023-04-12T04:41:25;1.47;;;1.30;;
50815;SDS011;39717;47.324;8.788;2023-04-12T04:43:51;1.73;;;1.40;;
50815;SDS011;39717;47.324;8.788;2023-04-12T04:46:18;1.50;;;1.40;;
50815;SDS011;39717;47.324;8.788;2023-04-12T04:48:47;2.83;;;1.40;;
50815;SDS011;39717;47.324;8.788;2023-04-12T04:51:16;1.10;;;1.10;;
50815;SDS011;39717;47.324;8.788;2023-04-12T04:53:42;2.57;;;1.40;;
50815;SDS011;39717;47.324;8.788;2023-04-12T04:56:08;1.33;;;1.23;;
50815;SDS011;39717;47.324;8.788;2023-04-12T04:58:34;1.20;;;1.10;;
50815;SDS011;39717;47.324;8.788;2023-04-12T05:01:00;2.83;;;1.30;;
50815;SDS011;39717;47.324;8.788;2023-04-12T05:03:27;1.87;;;1.60;;
50815;SDS011;39717;47.324;8.788;2023-04-12T05:05:54;1.83;;;1.70;;
50815;SDS011;39717;47.324;8.788;2023-04-12T05:08:20;4.03;;;1.97;;
50815;SDS011;39717;47.324;8.788;2023-04-12T05:10:51;2.67;;;2.33;;
50815;SDS011;39717;47.324;8.788;2023-04-12T05:13:17;2.33;;;2.07;;
50815;SDS011;39717;47.324;8.788;2023-04-12T05:15:43;2.50;;;2.30;;
50815;SDS011;39717;47.324;8.788;2023-04-12T05:18:09;2.53;;;2.20;;
50815;SDS011;39717;47.324;8.788;2023-04-12T05:20:38;2.07;;;1.70;;
50815;SDS011;39717;47.324;8.788;2023-04-12T05:23:04;2.73;;;2.13;;
50815;SDS011;39717;47.324;8.788;2023-04-12T05:25:30;2.20;;;2.00;;
50815;SDS011;39717;47.324;8.788;2023-04-12T05:27:57;3.07;;;2.67;;
50815;SDS011;39717;47.324;8.788;2023-04-12T05:30:23;4.57;;;3.37;;
50815;SDS011;39717;47.324;8.788;2023-04-12T05:32:49;3.30;;;2.70;;
50815;SDS011;39717;47.324;8.788;2023-04-12T05:35:15;3.10;;;2.33;;
50815;SDS011;39717;47.324;8.788;2023-04-12T05:37:41;3.73;;;2.33;;
50815;SDS011;39717;47.324;8.788;2023-04-12T05:40:07;5.00;;;2.63;;
50815;SDS011;39717;47.324;8.788;2023-04-12T05:42:34;3.60;;;2.77;;
50815;SDS011;39717;47.324;8.788;2023-04-12T05:45:03;3.60;;;2.60;;
50815;SDS011;39717;47.324;8.788;2023-04-12T05:47:30;5.33;;;2.90;;
50815;SDS011;39717;47.324;8.788;2023-04-12T05:49:56;2.50;;;2.30;;
50815;SDS011;39717;47.324;8.788;2023-04-12T05:52:22;3.17;;;2.30;;
50815;SDS011;39717;47.324;8.788;2023-04-12T05:54:48;2.63;;;2.30;;
50815;SDS011;39717;47.324;8.788;2023-04-12T05:57:13;2.53;;;2.17;;
50815;SDS011;39717;47.324;8.788;2023-04-12T05:59:41;2.67;;;2.17;;
50815;SDS011;39717;47.324;8.788;2023-04-12T06:02:07;2.63;;;2.43;;
50815;SDS011;39717;47.324;8.788;2023-04-12T06:04:34;3.00;;;2.30;;
50815;SDS011;39717;47.324;8.788;2023-04-12T06:07:02;3.80;;;2.33;;
50815;SDS011;39717;47.324;8.788;2023-04-12T06:09:30;3.77;;;2.20;;
50815;SDS011;39717;47.324;8.788;2023-04-12T06:11:56;3.10;;;2.27;;
50815;SDS011;39717;47.324;8.788;2023-04-12T06:14:22;2.50;;;2.30;;
50815;SDS011;39717;47.324;8.788;2023-04-12T06:16:48;2.50;;;2.07;;
50815;SDS011;39717;47.324;8.788;2023-04-12T06:19:14;2.50;;;2.17;;
50815;SDS011;39717;47.324;8.788;2023-04-12T06:21:39;3.40;;;2.03;;
50815;SDS011;39717;47.324;8.788;2023-04-12T06:24:05;2.77;;;2.00;;
50815;SDS011;39717;47.324;8.788;2023-04-12T06:26:32;1.93;;;1.73;;
50815;SDS011;39717;47.324;8.788;2023-04-12T06:28:57;3.00;;;1.60;;
50815;SDS011;39717;47.324;8.788;2023-04-12T06:31:23;3.23;;;2.40;;
50815;SDS011;39717;47.324;8.788;2023-04-12T06:33:49;3.70;;;2.40;;
50815;SDS011;39717;47.324;8.788;2023-04-12T06:36:15;2.90;;;1.70;;
50815;SDS011;39717;47.324;8.788;2023-04-12T06:38:41;1.83;;;1.17;;
50815;SDS011;39717;47.324;8.788;2023-04-12T06:41:07;1.33;;;1.03;;
50815;SDS011;39717;47.324;8.788;2023-04-12T06:43:32;1.37;;;1.10;;
50815;SDS011;39717;47.324;8.788;2023-04-12T06:45:58;1.70;;;1.20;;
50815;SDS011;39717;47.324;8.788;2023-04-12T06:48:27;1.00;;;0.90;;
50815;SDS011;39717;47.324;8.788;2023-04-12T06:50:53;0.77;;;0.77;;
50815;SDS011;39717;47.324;8.788;2023-04-12T06:53:19;0.90;;;0.90;;
50815;SDS011;39717;47.324;8.788;2023-04-12T06:55:45;1.07;;;1.00;;
50815;SDS011;39717;47.324;8.788;2023-04-12T06:58:11;1.13;;;1.00;;
50815;SDS011;39717;47.324;8.788;2023-04-12T07:00:36;1.40;;;1.27;;
50815;SDS011;39717;47.324;8.788;2023-04-12T07:03:03;0.87;;;0.87;;
50815;SDS011;39717;47.324;8.788;2023-04-12T07:05:29;1.20;;;1.10;;
50815;SDS011;39717;47.324;8.788;2023-04-12T07:07:55;1.20;;;1.10;;
50815;SDS011;39717;47.324;8.788;2023-04-12T07:10:20;0.87;;;0.87;;
50815;SDS011;39717;47.324;8.788;2023-04-12T07:12:46;1.53;;;1.33;;
50815;SDS011;39717;47.324;8.788;2023-04-12T07:15:12;1.00;;;1.00;;
50815;SDS011;39717;47.324;8.788;2023-04-12T07:17:37;2.77;;;0.87;;
50815;SDS011;39717;47.324;8.788;2023-04-12T07:20:03;3.70;;;1.20;;
50815;SDS011;39717;47.324;8.788;2023-04-12T07:22:29;1.10;;;1.03;;
50815;SDS011;39717;47.324;8.788;2023-04-12T07:24:55;0.90;;;0.90;;
50815;SDS011;39717;47.324;8.788;2023-04-12T07:27:21;1.87;;;1.27;;
50815;SDS011;39717;47.324;8.788;2023-04-12T07:29:46;1.47;;;1.37;;
50815;SDS011;39717;47.324;8.788;2023-04-12T07:32:15;1.10;;;1.00;;
50815;SDS011;39717;47.324;8.788;2023-04-12T07:34:40;1.80;;;1.20;;
50815;SDS011;39717;47.324;8.788;2023-04-12T07:37:06;1.97;;;1.50;;
50815;SDS011;39717;47.324;8.788;2023-04-12T07:39:32;2.27;;;1.27;;
50815;SDS011;39717;47.324;8.788;2023-04-12T07:41:58;2.10;;;1.20;;
50815;SDS011;39717;47.324;8.788;2023-04-12T07:44:25;1.53;;;1.30;;
50815;SDS011;39717;47.324;8.788;2023-04-12T07:46:51;2.53;;;1.60;;
50815;SDS011;39717;47.324;8.788;2023-04-12T07:49:17;3.20;;;1.90;;
50815;SDS011;39717;47.324;8.788;2023-04-12T07:51:43;4.27;;;1.97;;
50815;SDS011;39717;47.324;8.788;2023-04-12T07:54:09;1.70;;;1.60;;
50815;SDS011;39717;47.324;8.788;2023-04-12T07:56:34;3.93;;;1.70;;
50815;SDS011;39717;47.324;8.788;2023-04-12T07:59:00;1.20;;;1.10;;
50815;SDS011;39717;47.324;8.788;2023-04-12T08:01:26;3.43;;;1.73;;
50815;SDS011;39717;47.324;8.788;2023-04-12T08:03:52;3.20;;;1.77;;
50815;SDS011;39717;47.324;8.788;2023-04-12T08:06:19;1.43;;;1.00;;
50815;SDS011;39717;47.324;8.788;2023-04-12T08:08:45;2.07;;;1.00;;
50815;SDS011;39717;47.324;8.788;2023-04-12T08:11:11;1.10;;;0.90;;
50815;SDS011;39717;47.324;8.788;2023-04-12T08:13:37;1.20;;;0.80;;
50815;SDS011;39717;47.324;8.788;2023-04-12T08:16:03;0.70;;;0.70;;
50815;SDS011;39717;47.324;8.788;2023-04-12T08:18:30;1.70;;;0.60;;
50815;SDS011;39717;47.324;8.788;2023-04-12T08:20:56;1.70;;;1.07;;
50815;SDS011;39717;47.324;8.788;2023-04-12T08:23:23;1.80;;;1.53;;
50815;SDS011;39717;47.324;8.788;2023-04-12T08:25:51;4.53;;;1.43;;
50815;SDS011;39717;47.324;8.788;2023-04-12T08:28:26;0.90;;;0.90;;
50815;SDS011;39717;47.324;8.788;2023-04-12T08:30:53;0.97;;;0.87;;
50815;SDS011;39717;47.324;8.788;2023-04-12T08:33:19;0.87;;;0.70;;
50815;SDS011;39717;47.324;8.788;2023-04-12T08:35:45;0.80;;;0.80;;
50815;SDS011;39717;47.324;8.788;2023-04-12T08:38:11;0.70;;;0.70;;
50815;SDS011;39717;47.324;8.788;2023-04-12T08:40:38;0.83;;;0.80;;
50815;SDS011;39717;47.324;8.788;2023-04-12T08:43:07;1.27;;;0.90;;
50815;SDS011;39717;47.324;8.788;2023-04-12T08:45:33;1.40;;;0.70;;
50815;SDS011;39717;47.324;8.788;2023-04-12T08:48:01;0.77;;;0.77;;
50815;SDS011;39717;47.324;8.788;2023-04-12T08:50:28;0.97;;;0.90;;
50815;SDS011;39717;47.324;8.788;2023-04-12T08:52:54;1.17;;;0.90;;
50815;SDS011;39717;47.324;8.788;2023-04-12T08:55:20;2.93;;;0.80;;
50815;SDS011;39717;47.324;8.788;2023-04-12T08:57:46;0.50;;;0.50;;
50815;SDS011;39717;47.324;8.788;2023-04-12T09:00:13;1.43;;;1.00;;
50815;SDS011;39717;47.324;8.788;2023-04-12T09:02:40;0.70;;;0.70;;
50815;SDS011;39717;47.324;8.788;2023-04-12T09:05:10;0.80;;;0.80;;
50815;SDS011;39717;47.324;8.788;2023-04-12T09:07:38;1.00;;;0.90;;
50815;SDS011;39717;47.324;8.788;2023-04-12T09:10:04;1.90;;;0.90;;
50815;SDS011;39717;47.324;8.788;2023-04-12T09:12:31;1.10;;;1.00;;
50815;SDS011;39717;47.324;8.788;2023-04-12T09:15:08;0.70;;;0.70;;
50815;SDS011;39717;47.324;8.788;2023-04-12T09:17:36;1.87;;;1.23;;
50815;SDS011;39717;47.324;8.788;2023-04-12T09:20:07;1.03;;;0.90;;
50815;SDS011;39717;47.324;8.788;2023-04-12T09:22:48;0.97;;;0.93;;
50815;SDS011;39717;47.324;8.788;2023-04-12T09:25:14;0.80;;;0.80;;
50815;SDS011;39717;47.324;8.788;2023-04-12T09:27:47;0.60;;;0.60;;
50815;SDS011;39717;47.324;8.788;2023-04-12T09:30:14;0.80;;;0.77;;
50815;SDS011;39717;47.324;8.788;2023-04-12T09:32:41;1.67;;;1.20;;
50815;SDS011;39717;47.324;8.788;2023-04-12T09:35:07;1.43;;;1.30;;
50815;SDS011;39717;47.324;8.788;2023-04-12T09:37:34;2.23;;;1.07;;
50815;SDS011;39717;47.324;8.788;2023-04-12T09:40:00;1.90;;;1.00;;
50815;SDS011;39717;47.324;8.788;2023-04-12T09:42:28;2.10;;;1.30;;
50815;SDS011;39717;47.324;8.788;2023-04-12T09:44:55;1.03;;;1.00;;
50815;SDS011;39717;47.324;8.788;2023-04-12T09:47:22;1.47;;;1.00;;
50815;SDS011;39717;47.324;8.788;2023-04-12T09:50:01;1.80;;;1.03;;
50815;SDS011;39717;47.324;8.788;2023-04-12T09:52:33;2.40;;;0.97;;
50815;SDS011;39717;47.324;8.788;2023-04-12T09:55:01;2.47;;;1.40;;
50815;SDS011;39717;47.324;8.788;2023-04-12T09:57:28;2.53;;;1.30;;
50815;SDS011;39717;47.324;8.788;2023-04-12T09:59:55;1.60;;;1.13;;
50815;SDS011;39717;47.324;8.788;2023-04-12T10:02:25;6.73;;;1.33;;
50815;SDS011;39717;47.324;8.788;2023-04-12T10:04:52;2.17;;;1.30;;
50815;SDS011;39717;47.324;8.788;2023-04-12T10:07:18;2.60;;;1.30;;
50815;SDS011;39717;47.324;8.788;2023-04-12T10:09:44;3.07;;;1.63;;
50815;SDS011;39717;47.324;8.788;2023-04-12T10:12:11;1.60;;;1.37;;
50815;SDS011;39717;47.324;8.788;2023-04-12T10:14:37;2.00;;;1.40;;
50815;SDS011;39717;47.324;8.788;2023-04-12T10:17:04;3.17;;;1.50;;
50815;SDS011;39717;47.324;8.788;2023-04-12T10:19:31;3.83;;;1.53;;
50815;SDS011;39717;47.324;8.788;2023-04-12T10:21:58;2.67;;;1.70;;
50815;SDS011;39717;47.324;8.788;2023-04-12T10:24:26;3.37;;;1.67;;
50815;SDS011;39717;47.324;8.788;2023-04-12T10:26:53;2.87;;;1.37;;
50815;SDS011;39717;47.324;8.788;2023-04-12T10:29:23;3.20;;;1.47;;
50815;SDS011;39717;47.324;8.788;2023-04-12T10:31:50;3.83;;;1.50;;
50815;SDS011;39717;47.324;8.788;2023-04-12T10:34:17;1.73;;;1.20;;
50815;SDS011;39717;47.324;8.788;2023-04-12T10:36:52;2.77;;;1.90;;
50815;SDS011;39717;47.324;8.788;2023-04-12T10:44:53;3.20;;;1.60;;
50815;SDS011;39717;47.324;8.788;2023-04-12T10:50:20;2.17;;;1.20;;
50815;SDS011;39717;47.324;8.788;2023-04-12T10:55:39;1.20;;;1.10;;
50815;SDS011;39717;47.324;8.788;2023-04-12T10:58:07;3.70;;;1.10;;
50815;SDS011;39717;47.324;8.788;2023-04-12T11:03:18;1.87;;;1.40;;
50815;SDS011;39717;47.324;8.788;2023-04-12T11:08:24;3.77;;;1.13;;
50815;SDS011;39717;47.324;8.788;2023-04-12T11:10:52;3.20;;;1.63;;
50815;SDS011;39717;47.324;8.788;2023-04-12T11:13:24;3.63;;;1.37;;
50815;SDS011;39717;47.324;8.788;2023-04-12T11:15:54;4.00;;;1.37;;
50815;SDS011;39717;47.324;8.788;2023-04-12T11:18:22;2.57;;;1.40;;
50815;SDS011;39717;47.324;8.788;2023-04-12T11:20:49;1.67;;;1.20;;
50815;SDS011;39717;47.324;8.788;2023-04-12T11:23:16;1.47;;;1.20;;
50815;SDS011;39717;47.324;8.788;2023-04-12T11:25:48;2.57;;;2.37;;
50815;SDS011;39717;47.324;8.788;2023-04-12T11:28:18;2.87;;;1.70;;
50815;SDS011;39717;47.324;8.788;2023-04-12T11:30:49;2.53;;;1.63;;
50815;SDS011;39717;47.324;8.788;2023-04-12T11:33:29;2.80;;;1.90;;
50815;SDS011;39717;47.324;8.788;2023-04-12T11:35:56;3.50;;;2.07;;
50815;SDS011;39717;47.324;8.788;2023-04-12T11:38:22;2.50;;;2.03;;
50815;SDS011;39717;47.324;8.788;2023-04-12T11:40:49;3.47;;;2.33;;
50815;SDS011;39717;47.324;8.788;2023-04-12T11:43:18;3.53;;;2.03;;
50815;SDS011;39717;47.324;8.788;2023-04-12T11:45:45;2.63;;;2.00;;
50815;SDS011;39717;47.324;8.788;2023-04-12T11:48:11;3.83;;;2.10;;
50815;SDS011;39717;47.324;8.788;2023-04-12T11:50:38;3.30;;;2.33;;
50815;SDS011;39717;47.324;8.788;2023-04-12T11:53:09;2.50;;;2.30;;
50815;SDS011;39717;47.324;8.788;2023-04-12T11:55:36;3.63;;;2.10;;
50815;SDS011;39717;47.324;8.788;2023-04-12T11:58:02;3.07;;;2.40;;
50815;SDS011;39717;47.324;8.788;2023-04-12T12:00:28;3.67;;;2.30;;
50815;SDS011;39717;47.324;8.788;2023-04-12T12:02:55;3.60;;;1.90;;
50815;SDS011;39717;47.324;8.788;2023-04-12T12:05:21;3.13;;;2.20;;
50815;SDS011;39717;47.324;8.788;2023-04-12T12:07:48;2.73;;;2.17;;
50815;SDS011;39717;47.324;8.788;2023-04-12T12:10:16;4.60;;;2.30;;
50815;SDS011;39717;47.324;8.788;2023-04-12T12:12:43;5.60;;;2.10;;
50815;SDS011;39717;47.324;8.788;2023-04-12T12:15:09;3.47;;;2.00;;
50815;SDS011;39717;47.324;8.788;2023-04-12T12:17:35;2.53;;;1.60;;
50815;SDS011;39717;47.324;8.788;2023-04-12T12:20:03;3.10;;;1.67;;
50815;SDS011;39717;47.324;8.788;2023-04-12T12:22:29;2.67;;;1.43;;
50815;SDS011;39717;47.324;8.788;2023-04-12T12:24:56;2.93;;;1.67;;
50815;SDS011;39717;47.324;8.788;2023-04-12T12:27:23;3.90;;;1.87;;
50815;SDS011;39717;47.324;8.788;2023-04-12T12:29:53;1.87;;;1.37;;
50815;SDS011;39717;47.324;8.788;2023-04-12T12:32:20;3.27;;;1.67;;
50815;SDS011;39717;47.324;8.788;2023-04-12T12:34:51;2.67;;;2.10;;
50815;SDS011;39717;47.324;8.788;2023-04-12T12:37:27;2.53;;;1.63;;
50815;SDS011;39717;47.324;8.788;2023-04-12T12:40:00;2.70;;;1.60;;
50815;SDS011;39717;47.324;8.788;2023-04-12T12:42:32;3.40;;;1.40;;
50815;SDS011;39717;47.324;8.788;2023-04-12T12:45:00;1.83;;;1.67;;
50815;SDS011;39717;47.324;8.788;2023-04-12T12:47:29;1.60;;;1.27;;
50815;SDS011;39717;47.324;8.788;2023-04-12T12:49:56;3.00;;;1.60;;
50815;SDS011;39717;47.324;8.788;2023-04-12T12:52:22;2.17;;;1.17;;
50815;SDS011;39717;47.324;8.788;2023-04-12T12:54:48;1.40;;;1.10;;
50815;SDS011;39717;47.324;8.788;2023-04-12T12:57:14;2.33;;;1.40;;
50815;SDS011;39717;47.324;8.788;2023-04-12T12:59:41;2.07;;;1.53;;
50815;SDS011;39717;47.324;8.788;2023-04-12T13:02:07;1.90;;;1.23;;
50815;SDS011;39717;47.324;8.788;2023-04-12T13:04:33;2.27;;;1.50;;
50815;SDS011;39717;47.324;8.788;2023-04-12T13:07:00;1.60;;;1.43;;
50815;SDS011;39717;47.324;8.788;2023-04-12T13:09:26;3.40;;;1.50;;
50815;SDS011;39717;47.324;8.788;2023-04-12T13:11:52;3.57;;;1.50;;
50815;SDS011;39717;47.324;8.788;2023-04-12T13:14:18;1.23;;;1.10;;
50815;SDS011;39717;47.324;8.788;2023-04-12T13:16:44;1.00;;;0.90;;
50815;SDS011;39717;47.324;8.788;2023-04-12T13:19:13;0.60;;;0.60;;
50815;SDS011;39717;47.324;8.788;2023-04-12T13:21:40;2.33;;;0.90;;
50815;SDS011;39717;47.324;8.788;2023-04-12T13:24:06;1.00;;;0.80;;
50815;SDS011;39717;47.324;8.788;2023-04-12T13:26:33;0.97;;;0.83;;
50815;SDS011;39717;47.324;8.788;2023-04-12T13:28:59;0.80;;;0.80;;
50815;SDS011;39717;47.324;8.788;2023-04-12T13:31:26;0.60;;;0.60;;
50815;SDS011;39717;47.324;8.788;2023-04-12T13:33:52;0.60;;;0.60;;
50815;SDS011;39717;47.324;8.788;2023-04-12T13:36:18;0.93;;;0.60;;
50815;SDS011;39717;47.324;8.788;2023-04-12T13:38:44;0.70;;;0.70;;
50815;SDS011;39717;47.324;8.788;2023-04-12T13:41:11;1.57;;;0.90;;
50815;SDS011;39717;47.324;8.788;2023-04-12T13:43:38;0.73;;;0.50;;
50815;SDS011;39717;47.324;8.788;2023-04-12T13:46:04;0.47;;;0.47;;
50815;SDS011;39717;47.324;8.788;2023-04-12T13:48:31;0.73;;;0.60;;
50815;SDS011;39717;47.324;8.788;2023-04-12T13:50:57;0.60;;;0.60;;
50815;SDS011;39717;47.324;8.788;2023-04-12T13:53:23;0.50;;;0.50;;
50815;SDS011;39717;47.324;8.788;2023-04-12T13:55:50;0.60;;;0.57;;
50815;SDS011;39717;47.324;8.788;2023-04-12T13:58:16;0.30;;;0.30;;
50815;SDS011;39717;47.324;8.788;2023-04-12T14:00:42;0.80;;;0.80;;
50815;SDS011;39717;47.324;8.788;2023-04-12T14:03:09;0.77;;;0.70;;
50815;SDS011;39717;47.324;8.788;2023-04-12T14:05:35;1.47;;;0.70;;
50815;SDS011;39717;47.324;8.788;2023-04-12T14:08:01;0.57;;;0.57;;
50815;SDS011;39717;47.324;8.788;2023-04-12T14:10:27;1.20;;;0.60;;
50815;SDS011;39717;47.324;8.788;2023-04-12T14:12:53;0.50;;;0.50;;
50815;SDS011;39717;47.324;8.788;2023-04-12T14:15:19;0.80;;;0.60;;
50815;SDS011;39717;47.324;8.788;2023-04-12T14:17:45;1.33;;;0.50;;
50815;SDS011;39717;47.324;8.788;2023-04-12T14:20:11;0.37;;;0.37;;
50815;SDS011;39717;47.324;8.788;2023-04-12T14:22:38;0.40;;;0.40;;
50815;SDS011;39717;47.324;8.788;2023-04-12T14:25:04;1.07;;;0.60;;
50815;SDS011;39717;47.324;8.788;2023-04-12T14:27:30;0.60;;;0.60;;
50815;SDS011;39717;47.324;8.788;2023-04-12T14:29:56;1.60;;;0.60;;
50815;SDS011;39717;47.324;8.788;2023-04-12T14:32:22;0.70;;;0.60;;
50815;SDS011;39717;47.324;8.788;2023-04-12T14:34:49;0.40;;;0.40;;
50815;SDS011;39717;47.324;8.788;2023-04-12T14:37:15;1.07;;;0.70;;
50815;SDS011;39717;47.324;8.788;2023-04-12T14:39:42;0.87;;;0.80;;
50815;SDS011;39717;47.324;8.788;2023-04-12T14:42:08;0.93;;;0.70;;
50815;SDS011;39717;47.324;8.788;2023-04-12T14:44:34;0.73;;;0.67;;
50815;SDS011;39717;47.324;8.788;2023-04-12T14:47:01;0.40;;;0.40;;
50815;SDS011;39717;47.324;8.788;2023-04-12T14:49:27;2.03;;;0.60;;
50815;SDS011;39717;47.324;8.788;2023-04-12T14:51:54;1.77;;;1.00;;
50815;SDS011;39717;47.324;8.788;2023-04-12T14:54:21;0.73;;;0.67;;
50815;SDS011;39717;47.324;8.788;2023-04-12T14:56:47;0.80;;;0.80;;
50815;SDS011;39717;47.324;8.788;2023-04-12T14:59:15;0.83;;;0.70;;
50815;SDS011;39717;47.324;8.788;2023-04-12T15:01:41;1.30;;;0.50;;
50815;SDS011;39717;47.324;8.788;2023-04-12T15:04:07;1.07;;;0.77;;
50815;SDS011;39717;47.324;8.788;2023-04-12T15:06:34;0.60;;;0.60;;
50815;SDS011;39717;47.324;8.788;2023-04-12T15:09:06;1.27;;;0.90;;
50815;SDS011;39717;47.324;8.788;2023-04-12T15:11:32;0.70;;;0.70;;
50815;SDS011;39717;47.324;8.788;2023-04-12T15:14:01;1.20;;;0.90;;